Time;durP1;ratioP1;P1;durP2;ratioP2;P2;SDS_P1;SDS_P2;PMS_P1;PMS_P2;Temp;Humidity;BMP_temperature;BMP_pressure;BME280_temperature;BME280_humidity;BME280_pressure;Samples;Min_cycle;Max_cycle;Signal;HPM_P1;HPM_P2
2022/05/12 00:01:48;;;;;;;13.48;2.35;;;18.40;99.90;;;;;;5073859;28;20188;-85
2022/05/12 00:04:19;;;;;;;11.75;2.20;;;18.40;99.90;;;;;;5074702;28;20275;-90
2022/05/12 00:06:50;;;;;;;12.55;2.15;;;18.50;99.90;;;;;;5067256;28;20213;-83
2022/05/12 00:09:20;;;;;;;11.43;1.88;;;18.60;99.90;;;;;;5067076;28;20229;-82
2022/05/12 00:11:51;;;;;;;11.10;1.88;;;18.60;99.90;;;;;;5059152;28;20193;-82
2022/05/12 00:14:22;;;;;;;11.75;1.90;;;18.70;99.90;;;;;;5071354;28;20196;-82
2022/05/12 00:16:56;;;;;;;16.27;1.83;;;18.70;99.90;;;;;;5073048;28;20193;-82
2022/05/12 00:19:28;;;;;;;19.90;2.40;;;18.90;99.90;;;;;;5071257;28;20682;-83
2022/05/12 00:21:59;;;;;;;19.75;1.90;;;19.00;99.90;;;;;;5072727;28;20276;-82
2022/05/12 00:24:30;;;;;;;15.93;1.75;;;19.00;99.90;;;;;;5072114;28;20193;-82
2022/05/12 00:27:00;;;;;;;15.98;1.80;;;19.00;99.90;;;;;;5073086;28;20208;-82
2022/05/12 00:29:31;;;;;;;13.25;1.65;;;19.00;99.90;;;;;;5073459;28;20193;-81
2022/05/12 00:32:04;;;;;;;10.93;1.63;;;19.00;99.90;;;;;;5069468;28;20189;-82
2022/05/12 00:34:34;;;;;;;12.88;1.92;;;19.00;99.90;;;;;;5073253;28;20246;-81
2022/05/12 00:37:05;;;;;;;17.50;2.13;;;19.00;99.90;;;;;;5062672;28;20201;-81
2022/05/12 00:39:36;;;;;;;27.67;4.20;;;19.00;99.90;;;;;;5072980;28;20636;-81
2022/05/12 00:42:06;;;;;;;16.23;2.67;;;19.00;99.90;;;;;;5073107;28;20235;-81
2022/05/12 00:44:37;;;;;;;19.05;2.13;;;19.00;99.90;;;;;;5069468;28;20181;-82
2022/05/12 00:47:10;;;;;;;18.85;2.35;;;19.00;99.90;;;;;;5070243;28;20215;-82
2022/05/12 00:49:42;;;;;;;14.55;2.22;;;18.90;99.90;;;;;;5071053;28;20193;-82
2022/05/12 00:52:16;;;;;;;18.95;2.35;;;18.90;99.90;;;;;;5070267;28;20663;-81
2022/05/12 00:54:51;;;;;;;13.00;2.22;;;18.90;99.90;;;;;;5070513;28;20251;-81
2022/05/12 00:57:28;;;;;;;15.63;1.83;;;18.90;99.90;;;;;;5072277;28;20216;-81
2022/05/12 01:00:01;;;;;;;14.85;2.20;;;18.90;99.90;;;;;;5071551;28;20195;-81
2022/05/12 01:02:36;;;;;;;19.70;2.10;;;19.00;99.90;;;;;;5072101;28;20198;-82
2022/05/12 01:05:07;;;;;;;15.43;2.08;;;19.00;99.90;;;;;;5070458;28;20189;-80
2022/05/12 01:07:38;;;;;;;22.70;2.38;;;19.10;99.90;;;;;;5072399;28;20208;-80
2022/05/12 01:10:10;;;;;;;19.10;2.22;;;19.10;99.90;;;;;;5068882;28;20196;-81
2022/05/12 01:12:44;;;;;;;20.98;2.22;;;19.10;99.90;;;;;;5069345;28;20271;-81
2022/05/12 01:15:17;;;;;;;24.38;2.30;;;19.10;99.90;;;;;;5072206;28;20652;-81
2022/05/12 01:17:50;;;;;;;45.22;21.50;;;19.10;99.90;;;;;;5072792;28;20197;-82
2022/05/12 01:20:20;;;;;;;24.55;6.05;;;19.10;99.90;;;;;;5071409;28;20193;-83
2022/05/12 01:22:56;;;;;;;20.92;2.50;;;19.20;99.90;;;;;;5073017;28;20231;-81
2022/05/12 01:25:32;;;;;;;16.60;2.78;;;19.30;99.90;;;;;;5072214;28;20184;-82
2022/05/12 01:28:03;;;;;;;20.58;2.40;;;19.30;99.90;;;;;;5066941;28;20200;-80
2022/05/12 01:30:33;;;;;;;19.83;2.00;;;19.30;99.90;;;;;;5070098;28;20205;-80
2022/05/12 01:33:04;;;;;;;22.50;2.55;;;19.40;99.90;;;;;;5072330;28;20636;-79
2022/05/12 01:35:35;;;;;;;17.00;2.47;;;19.40;99.90;;;;;;5070341;28;20239;-79
2022/05/12 01:38:06;;;;;;;20.25;2.40;;;19.50;99.90;;;;;;5069545;28;20181;-79
2022/05/12 01:40:43;;;;;;;26.83;2.45;;;19.50;99.90;;;;;;5072441;28;20238;-79
2022/05/12 01:43:14;;;;;;;22.27;2.70;;;19.60;99.90;;;;;;5070575;28;20185;-79
2022/05/12 01:45:45;;;;;;;19.98;2.38;;;19.60;99.90;;;;;;5071733;28;20196;-79
2022/05/12 01:48:17;;;;;;;22.23;2.40;;;19.70;99.90;;;;;;5071911;28;20181;-79
2022/05/12 01:50:49;;;;;;;25.50;2.90;;;19.70;99.90;;;;;;5071367;28;20632;-80
2022/05/12 01:53:20;;;;;;;20.92;2.70;;;19.70;99.90;;;;;;5069156;28;20209;-79
2022/05/12 01:55:53;;;;;;;23.25;2.70;;;19.70;99.90;;;;;;5072404;28;20197;-80
2022/05/12 01:58:24;;;;;;;16.25;1.83;;;19.70;99.90;;;;;;5071668;28;20224;-81
2022/05/12 02:00:54;;;;;;;22.50;2.63;;;19.70;99.90;;;;;;5072116;28;20197;-79
2022/05/12 02:03:25;;;;;;;23.98;2.75;;;19.70;99.90;;;;;;5063378;28;20189;-79
2022/05/12 02:05:56;;;;;;;22.30;2.55;;;19.70;99.90;;;;;;5063832;28;20591;-79
2022/05/12 02:08:27;;;;;;;27.80;2.83;;;19.80;99.90;;;;;;5071814;28;20293;-79
2022/05/12 02:10:59;;;;;;;22.00;2.63;;;19.70;99.90;;;;;;5072394;28;20190;-79
2022/05/12 02:13:30;;;;;;;22.58;2.50;;;19.70;99.90;;;;;;5071397;28;20193;-79
2022/05/12 02:16:01;;;;;;;23.77;2.50;;;19.80;99.90;;;;;;5063477;28;20201;-78
2022/05/12 02:18:32;;;;;;;23.05;3.22;;;19.80;99.90;;;;;;5063271;28;20595;-82
2022/05/12 02:21:02;;;;;;;22.13;2.58;;;19.90;99.90;;;;;;5071987;28;20196;-78
2022/05/12 02:23:33;;;;;;;32.28;2.97;;;19.90;99.90;;;;;;5071387;28;20250;-80
2022/05/12 02:26:06;;;;;;;28.17;2.80;;;20.00;99.90;;;;;;5068921;28;20185;-79
2022/05/12 02:28:36;;;;;;;34.30;2.70;;;20.10;99.90;;;;;;5066080;28;20189;-79
2022/05/12 02:31:07;;;;;;;24.23;3.08;;;20.10;99.90;;;;;;5070382;28;20197;-80
2022/05/12 02:33:38;;;;;;;25.58;2.50;;;20.20;99.90;;;;;;5065529;28;20625;-80
2022/05/12 02:36:08;;;;;;;26.58;3.00;;;20.30;99.90;;;;;;5058214;28;20198;-80
2022/05/12 02:38:39;;;;;;;32.42;3.58;;;20.20;99.90;;;;;;5069885;28;20196;-83
2022/05/12 02:41:12;;;;;;;27.15;2.50;;;20.20;99.90;;;;;;5068855;28;20660;-82
2022/05/12 02:43:42;;;;;;;26.27;2.80;;;20.20;99.90;;;;;;5071192;28;20246;-81
2022/05/12 02:46:14;;;;;;;22.50;2.92;;;20.20;99.90;;;;;;5070993;28;20212;-84
2022/05/12 02:48:46;;;;;;;31.48;2.35;;;20.10;99.90;;;;;;5066760;28;20185;-79
2022/05/12 02:51:17;;;;;;;18.95;2.35;;;20.10;99.90;;;;;;5073358;28;20197;-77
2022/05/12 02:53:48;;;;;;;27.15;2.88;;;20.00;99.90;;;;;;5063670;28;20303;-82
2022/05/12 02:56:20;;;;;;;26.95;3.25;;;20.00;99.90;;;;;;5065168;28;20243;-81
2022/05/12 02:58:51;;;;;;;19.48;2.13;;;20.00;99.90;;;;;;5073811;28;20217;-82
2022/05/12 03:01:22;;;;;;;23.50;2.65;;;20.00;99.90;;;;;;5067737;28;20192;-83
2022/05/12 03:03:53;;;;;;;21.13;2.88;;;20.00;99.90;;;;;;5070557;28;20197;-81
2022/05/12 03:06:23;;;;;;;22.13;2.63;;;20.00;99.90;;;;;;5072124;28;20217;-78
2022/05/12 03:08:54;;;;;;;18.23;2.65;;;19.90;99.90;;;;;;5067856;28;20232;-79
2022/05/12 03:11:28;;;;;;;17.40;2.15;;;19.90;99.90;;;;;;5070041;28;20564;-80
2022/05/12 03:13:59;;;;;;;15.60;2.33;;;19.90;99.90;;;;;;5066142;28;20702;-78
2022/05/12 03:16:29;;;;;;;18.13;2.22;;;19.90;99.90;;;;;;5064894;28;20205;-80
2022/05/12 03:19:00;;;;;;;14.57;1.90;;;19.90;99.90;;;;;;5067367;28;20193;-81
2022/05/12 03:21:31;;;;;;;13.35;1.83;;;19.90;99.90;;;;;;5068586;28;20721;-79
2022/05/12 03:24:01;;;;;;;16.75;2.20;;;19.90;99.90;;;;;;5068672;28;20200;-80
2022/05/12 03:26:34;;;;;;;19.25;2.13;;;19.90;99.90;;;;;;5068256;28;20550;-79
2022/05/12 03:29:05;;;;;;;19.35;2.28;;;19.90;99.90;;;;;;5063488;28;20193;-81
2022/05/12 03:31:36;;;;;;;14.23;1.88;;;19.90;99.90;;;;;;5072372;28;20204;-79
2022/05/12 03:34:06;;;;;;;15.88;2.00;;;19.90;99.90;;;;;;5074166;28;20256;-78
2022/05/12 03:36:39;;;;;;;13.88;2.10;;;19.90;99.90;;;;;;5070934;28;20656;-78
2022/05/12 03:39:10;;;;;;;18.55;2.05;;;20.00;99.90;;;;;;5064607;28;20286;-78
2022/05/12 03:41:42;;;;;;;20.10;2.38;;;20.00;99.90;;;;;;5069035;28;20239;-80
2022/05/12 03:46:59;;;;;;;23.15;3.15;;;20.00;99.90;;;;;;5064811;28;20224;-79
2022/05/12 03:49:30;;;;;;;19.58;2.58;;;20.10;99.90;;;;;;5069365;28;20197;-80
2022/05/12 03:52:01;;;;;;;23.35;2.50;;;20.10;99.90;;;;;;5057435;28;20259;-81
2022/05/12 03:54:31;;;;;;;25.10;2.80;;;20.10;99.90;;;;;;5065543;28;20193;-80
2022/05/12 03:57:04;;;;;;;23.77;3.17;;;20.10;99.90;;;;;;5068267;28;20561;-80
2022/05/12 03:59:35;;;;;;;27.00;2.95;;;20.10;99.90;;;;;;5069377;28;20206;-79
2022/05/12 04:02:06;;;;;;;22.33;2.60;;;20.10;99.90;;;;;;5056911;28;20201;-80
2022/05/12 04:04:36;;;;;;;18.60;2.65;;;20.10;99.90;;;;;;5071667;28;20652;-79
2022/05/12 04:07:07;;;;;;;25.90;2.90;;;20.10;99.90;;;;;;5061627;28;20225;-81
2022/05/12 04:09:38;;;;;;;26.10;2.85;;;20.10;99.90;;;;;;5062383;28;20244;-82
2022/05/12 04:12:11;;;;;;;21.95;2.90;;;20.20;99.90;;;;;;5069998;28;20189;-83
2022/05/12 04:14:42;;;;;;;24.67;3.03;;;20.20;99.90;;;;;;5061694;28;20201;-81
2022/05/12 04:17:15;;;;;;;28.83;2.97;;;20.20;99.90;;;;;;5066334;28;20201;-81
2022/05/12 04:19:47;;;;;;;29.13;2.78;;;20.20;99.90;;;;;;5071983;28;20193;-81
2022/05/12 04:22:17;;;;;;;30.70;2.88;;;20.20;99.90;;;;;;5065682;28;20192;-80
2022/05/12 04:24:48;;;;;;;15.10;2.40;;;20.10;99.90;;;;;;5066202;28;20201;-80
2022/05/12 04:27:21;;;;;;;17.73;2.88;;;20.20;99.90;;;;;;5063327;28;20683;-81
2022/05/12 04:29:51;;;;;;;23.85;2.25;;;20.10;99.90;;;;;;5067958;28;20193;-81
2022/05/12 04:32:22;;;;;;;21.83;2.83;;;20.20;99.90;;;;;;5065872;28;20193;-82
2022/05/12 04:37:40;;;;;;;17.80;2.15;;;20.10;99.90;;;;;;5069207;28;20200;-82
2022/05/12 04:40:13;;;;;;;22.67;2.25;;;20.10;99.90;;;;;;5062428;28;20201;-80
2022/05/12 04:42:46;;;;;;;20.25;2.40;;;20.20;99.90;;;;;;5067620;28;20185;-82
2022/05/12 04:45:17;;;;;;;19.63;2.53;;;20.20;99.90;;;;;;5069295;28;20193;-82
2022/05/12 04:47:48;;;;;;;20.25;2.63;;;20.10;99.90;;;;;;5061943;28;20266;-82
2022/05/12 04:50:21;;;;;;;20.42;2.50;;;20.20;99.90;;;;;;5066656;28;20559;-82
2022/05/12 04:52:52;;;;;;;23.35;2.55;;;20.20;99.90;;;;;;5066300;28;20200;-81
2022/05/12 04:55:23;;;;;;;21.42;2.53;;;20.20;99.90;;;;;;5065656;28;20200;-81
2022/05/12 04:57:59;;;;;;;19.65;2.22;;;20.20;99.90;;;;;;5067625;28;20217;-83
2022/05/12 05:00:32;;;;;;;18.52;2.65;;;20.30;99.90;;;;;;5069547;28;20203;-85
2022/05/12 05:03:03;;;;;;;26.88;2.83;;;20.30;99.90;;;;;;5072807;28;20261;-83
2022/05/12 05:05:34;;;;;;;22.00;2.78;;;20.30;99.90;;;;;;5068941;28;20209;-82
2022/05/12 05:08:06;;;;;;;20.70;2.42;;;20.20;99.90;;;;;;5069040;28;20286;-82
2022/05/12 05:10:37;;;;;;;20.42;2.53;;;20.30;99.90;;;;;;5063559;28;20230;-84
2022/05/12 05:13:09;;;;;;;15.63;2.40;;;20.20;99.90;;;;;;5063283;28;20198;-83
2022/05/12 05:15:40;;;;;;;25.67;2.78;;;20.20;99.90;;;;;;5068677;28;20246;-84
2022/05/12 05:18:14;;;;;;;20.55;2.90;;;20.20;99.90;;;;;;5057190;28;20197;-85
2022/05/12 05:20:46;;;;;;;17.80;2.45;;;20.30;99.90;;;;;;5061203;28;20193;-85
2022/05/12 05:23:21;;;;;;;17.92;2.33;;;20.20;99.90;;;;;;5056312;28;20266;-85
2022/05/12 05:25:51;;;;;;;18.65;2.40;;;20.30;99.90;;;;;;5067206;28;20300;-84
2022/05/12 05:28:24;;;;;;;17.38;2.95;;;20.30;99.90;;;;;;5065079;28;20220;-85
2022/05/12 05:30:55;;;;;;;21.98;2.80;;;20.30;99.90;;;;;;5073965;28;20250;-82
2022/05/12 05:33:25;;;;;;;21.77;2.70;;;20.30;99.90;;;;;;5064172;28;20603;-83
2022/05/12 05:35:57;;;;;;;16.05;2.25;;;20.20;99.90;;;;;;5064751;28;20201;-82
2022/05/12 05:38:27;;;;;;;21.83;2.47;;;20.10;99.90;;;;;;5064536;28;20594;-83
2022/05/12 05:40:58;;;;;;;21.55;2.80;;;20.10;99.90;;;;;;5064934;28;20224;-83
2022/05/12 05:43:31;;;;;;;18.20;2.33;;;20.00;99.90;;;;;;5065181;28;20194;-83
2022/05/12 05:46:01;;;;;;;17.10;2.70;;;20.00;99.90;;;;;;5061491;28;20672;-82
2022/05/12 05:48:32;;;;;;;20.20;2.17;;;20.00;99.90;;;;;;5061015;28;20565;-85
2022/05/12 05:53:49;;;;;;;19.52;2.70;;;19.90;99.90;;;;;;5061501;28;20195;-84
2022/05/12 05:56:20;;;;;;;23.23;2.65;;;19.90;99.90;;;;;;5069998;28;20212;-84
2022/05/12 05:58:52;;;;;;;15.43;2.30;;;19.90;99.90;;;;;;5070380;28;20605;-84
2022/05/12 06:01:23;;;;;;;13.35;2.22;;;19.90;99.90;;;;;;5058576;28;20723;-82
2022/05/12 06:03:56;;;;;;;10.90;1.48;;;19.90;99.90;;;;;;5060033;28;20200;-84
2022/05/12 06:06:27;;;;;;;16.92;2.30;;;19.80;99.90;;;;;;5068941;28;20193;-83
2022/05/12 06:08:58;;;;;;;13.18;1.73;;;19.90;99.90;;;;;;5061228;28;20753;-82
2022/05/12 06:11:28;;;;;;;15.20;2.05;;;19.90;99.90;;;;;;5064473;28;20280;-85
2022/05/12 06:14:01;;;;;;;17.33;2.15;;;19.80;99.90;;;;;;5070169;28;20250;-81
2022/05/12 06:16:32;;;;;;;16.05;1.85;;;19.80;99.90;;;;;;5066204;28;20185;-84
2022/05/12 06:19:03;;;;;;;16.23;1.60;;;19.80;99.90;;;;;;5061476;28;20207;-83
2022/05/12 06:21:33;;;;;;;14.80;1.98;;;19.80;99.90;;;;;;5068093;28;20201;-82
2022/05/12 06:24:04;;;;;;;14.50;1.60;;;19.80;99.90;;;;;;5065574;28;20208;-82
2022/05/12 06:26:35;;;;;;;11.48;1.88;;;19.80;99.90;;;;;;5070028;28;20197;-82
2022/05/12 06:29:07;;;;;;;13.13;1.73;;;19.70;99.90;;;;;;5069530;28;20344;-81
2022/05/12 06:31:40;;;;;;;15.18;1.70;;;19.70;99.90;;;;;;5073231;28;20227;-82
2022/05/12 06:34:10;;;;;;;17.42;2.05;;;19.70;99.90;;;;;;5071114;28;20194;-81
2022/05/12 06:36:41;;;;;;;15.27;2.10;;;19.70;99.90;;;;;;5061944;28;20201;-82
2022/05/12 06:39:12;;;;;;;16.73;2.60;;;19.70;99.90;;;;;;5060549;28;20192;-81
2022/05/12 06:41:43;;;;;;;15.07;1.90;;;19.60;99.90;;;;;;5073041;28;20259;-81
2022/05/12 06:44:15;;;;;;;14.50;1.88;;;19.60;99.90;;;;;;5057823;28;20194;-82
2022/05/12 06:46:46;;;;;;;16.92;2.05;;;19.60;99.90;;;;;;5071546;28;20190;-80
2022/05/12 06:49:17;;;;;;;14.93;2.10;;;19.60;99.90;;;;;;5054092;28;20217;-82
2022/05/12 06:51:47;;;;;;;12.45;2.00;;;19.60;99.90;;;;;;5063899;28;20201;-82
2022/05/12 06:54:18;;;;;;;14.38;2.00;;;19.60;99.90;;;;;;5062638;28;20196;-84
2022/05/12 06:56:49;;;;;;;11.52;1.80;;;19.50;99.90;;;;;;5075574;28;20270;-84
2022/05/12 06:59:21;;;;;;;14.60;2.45;;;19.50;99.90;;;;;;5070208;28;20201;-82
2022/05/12 07:01:52;;;;;;;13.93;2.38;;;19.50;99.90;;;;;;5066954;28;20611;-82
2022/05/12 07:04:24;;;;;;;13.95;2.08;;;19.50;99.90;;;;;;5071435;28;20197;-82
2022/05/12 07:06:54;;;;;;;10.40;1.67;;;19.50;99.90;;;;;;5070757;28;20635;-83
2022/05/12 07:09:25;;;;;;;11.93;2.00;;;19.50;99.90;;;;;;5064134;28;20291;-83
2022/05/12 07:11:56;;;;;;;13.63;1.90;;;19.50;99.90;;;;;;5058139;28;20196;-83
2022/05/12 07:14:29;;;;;;;11.60;1.90;;;19.50;99.90;;;;;;5055417;28;20656;-84
2022/05/12 07:17:01;;;;;;;17.48;2.20;;;19.60;99.90;;;;;;5074141;28;20223;-82
2022/05/12 07:19:33;;;;;;;12.25;1.88;;;19.50;99.90;;;;;;5064045;28;20204;-81
2022/05/12 07:27:39;;;;;;;13.60;2.05;;;19.60;99.90;;;;;;5067036;28;20258;-83
2022/05/12 07:30:13;;;;;;;14.25;1.80;;;19.50;99.90;;;;;;5065567;28;20284;-82
2022/05/12 07:32:43;;;;;;;19.25;1.85;;;19.60;99.90;;;;;;5070505;28;20223;-81
2022/05/12 07:35:14;;;;;;;15.27;1.80;;;19.60;99.90;;;;;;5066833;28;20189;-83
2022/05/12 07:37:45;;;;;;;11.50;1.80;;;19.60;99.90;;;;;;5064129;28;20205;-82
2022/05/12 07:40:16;;;;;;;21.90;2.00;;;19.60;99.90;;;;;;5063889;28;20255;-83
2022/05/12 07:42:50;;;;;;;14.18;1.73;;;19.60;99.90;;;;;;5066101;28;20193;-81
2022/05/12 07:45:22;;;;;;;15.07;1.75;;;19.60;99.90;;;;;;5068699;28;20569;-84
2022/05/12 07:47:53;;;;;;;18.27;2.33;;;19.60;99.90;;;;;;5071099;28;20380;-82
2022/05/12 07:50:25;;;;;;;15.68;2.10;;;19.70;99.90;;;;;;5066934;28;20205;-80
2022/05/12 07:52:56;;;;;;;18.45;2.00;;;19.70;99.90;;;;;;5060895;28;20198;-80
2022/05/12 07:55:27;;;;;;;18.35;2.00;;;19.70;99.90;;;;;;5072676;28;20193;-82
2022/05/12 07:57:57;;;;;;;18.55;2.10;;;19.70;99.90;;;;;;5062857;28;20229;-79
2022/05/12 08:00:30;;;;;;;15.40;1.92;;;19.80;99.90;;;;;;5068091;28;20193;-81
2022/05/12 08:03:01;;;;;;;16.92;2.03;;;19.70;99.90;;;;;;5072162;28;20267;-82
2022/05/12 08:05:33;;;;;;;20.30;2.17;;;19.70;99.90;;;;;;5067430;28;20706;-80
2022/05/12 08:08:08;;;;;;;18.58;2.03;;;19.70;99.90;;;;;;5068802;28;20236;-80
2022/05/12 08:10:38;;;;;;;19.67;2.03;;;19.70;99.90;;;;;;5074137;28;20201;-83
2022/05/12 08:13:14;;;;;;;17.27;2.38;;;19.80;99.90;;;;;;5070084;28;20597;-83
2022/05/12 08:15:48;;;;;;;24.80;2.47;;;19.70;99.90;;;;;;5065571;28;20199;-83
2022/05/12 08:18:21;;;;;;;15.32;1.63;;;19.70;99.90;;;;;;5070350;28;20205;-82
2022/05/12 08:20:52;;;;;;;20.02;2.33;;;19.70;99.90;;;;;;5073148;28;20250;-82
2022/05/12 08:23:24;;;;;;;15.77;1.77;;;19.70;99.90;;;;;;5072200;28;20201;-82
2022/05/12 08:25:54;;;;;;;8.95;1.65;;;19.60;99.90;;;;;;5068375;28;20208;-80
2022/05/12 08:28:26;;;;;;;23.25;2.28;;;19.70;99.90;;;;;;5071177;28;20273;-82
2022/05/12 08:30:59;;;;;;;23.42;2.60;;;19.70;99.90;;;;;;5067106;28;20679;-81
2022/05/12 08:33:29;;;;;;;17.50;2.60;;;19.70;99.90;;;;;;5066752;28;20205;-81
2022/05/12 08:36:00;;;;;;;13.10;2.20;;;19.70;99.90;;;;;;5058106;28;20600;-81
2022/05/12 08:38:31;;;;;;;15.27;2.70;;;19.70;99.90;;;;;;5068375;28;20247;-81
2022/05/12 08:41:16;;;;;;;16.70;2.30;;;19.70;99.90;;;;;;5064863;28;20204;-81
2022/05/12 08:43:54;;;;;;;15.52;2.55;;;19.70;99.90;;;;;;5073797;28;20193;-81
2022/05/12 08:46:29;;;;;;;19.90;2.67;;;19.60;99.90;;;;;;5063506;28;20228;-82
2022/05/12 08:49:08;;;;;;;16.25;2.20;;;19.60;99.90;;;;;;5071466;28;20220;-81
2022/05/12 08:51:39;;;;;;;13.05;1.85;;;19.60;99.90;;;;;;5063732;28;20196;-81
2022/05/12 08:54:17;;;;;;;12.95;1.67;;;19.60;99.90;;;;;;5073314;28;20193;-81
2022/05/12 08:56:48;;;;;;;12.50;2.30;;;19.60;99.90;;;;;;5064027;28;20228;-80
2022/05/12 08:59:18;;;;;;;14.25;2.05;;;19.60;99.90;;;;;;5073034;28;20200;-80
2022/05/12 09:02:01;;;;;;;16.80;2.15;;;19.60;99.90;;;;;;5073593;28;20239;-81
2022/05/12 09:05:02;;;;;;;12.50;1.98;;;19.50;99.90;;;;;;5073718;28;20193;-81
2022/05/12 09:07:39;;;;;;;11.95;2.08;;;19.50;99.90;;;;;;5052068;28;20281;-81
2022/05/12 09:10:28;;;;;;;13.00;2.10;;;19.50;99.90;;;;;;5053612;28;20580;-81
2022/05/12 09:13:02;;;;;;;15.95;2.22;;;19.50;99.90;;;;;;5053374;28;20193;-80
2022/05/12 09:15:35;;;;;;;13.48;2.10;;;19.50;99.90;;;;;;5068664;28;20590;-81
2022/05/12 09:18:13;;;;;;;15.77;2.63;;;19.50;99.90;;;;;;5073468;28;20196;-81
2022/05/12 09:20:44;;;;;;;17.50;2.60;;;19.40;99.90;;;;;;5073402;28;20596;-80
2022/05/12 09:23:15;;;;;;;18.08;3.65;;;19.50;99.90;;;;;;5073363;28;20232;-80
2022/05/12 09:25:48;;;;;;;12.32;2.83;;;19.40;99.90;;;;;;5073320;28;20682;-81
2022/05/12 09:28:28;;;;;;;11.65;2.13;;;19.40;99.90;;;;;;5073076;28;20648;-81
2022/05/12 09:31:03;;;;;;;16.85;1.92;;;19.40;99.90;;;;;;5073309;28;20284;-80
2022/05/12 09:33:38;;;;;;;12.57;1.98;;;19.40;99.90;;;;;;5073223;28;20238;-81
2022/05/12 09:36:11;;;;;;;17.15;2.50;;;19.40;99.90;;;;;;5059729;28;20355;-81
2022/05/12 09:38:44;;;;;;;11.93;2.53;;;19.40;99.90;;;;;;5058871;28;20659;-81
2022/05/12 09:41:20;;;;;;;9.30;2.13;;;19.40;99.90;;;;;;5073320;28;20280;-81
2022/05/12 09:43:53;;;;;;;12.93;2.20;;;19.40;99.90;;;;;;5073065;28;20184;-81
2022/05/12 09:46:29;;;;;;;12.00;2.13;;;19.40;99.90;;;;;;5071540;28;20663;-81
2022/05/12 09:49:19;;;;;;;12.55;2.30;;;19.40;99.90;;;;;;5062173;28;20266;-80
2022/05/12 09:51:50;;;;;;;15.45;2.15;;;19.30;99.90;;;;;;5077283;28;20197;-81
2022/05/12 09:54:26;;;;;;;16.92;2.20;;;19.40;99.90;;;;;;5077131;28;20238;-80
2022/05/12 09:57:03;;;;;;;16.95;2.17;;;19.40;99.90;;;;;;5075700;28;20285;-80
2022/05/12 09:59:35;;;;;;;14.82;2.05;;;19.40;99.90;;;;;;5061543;28;20193;-81
2022/05/12 10:02:07;;;;;;;19.45;2.05;;;19.40;99.90;;;;;;5061904;28;20531;-80
2022/05/12 10:10:22;;;;;;;10.77;1.73;;;19.40;99.90;;;;;;5077081;28;20273;-80
2022/05/12 10:12:58;;;;;;;14.18;1.95;;;19.50;99.90;;;;;;5076762;28;20222;-82
2022/05/12 10:15:34;;;;;;;16.38;1.92;;;19.50;99.90;;;;;;5076776;28;20276;-81
2022/05/12 10:18:07;;;;;;;9.43;1.60;;;19.50;99.90;;;;;;5074926;28;20192;-80
2022/05/12 10:20:44;;;;;;;9.82;2.38;;;19.50;99.90;;;;;;5056866;28;20189;-80
2022/05/12 10:23:24;;;;;;;13.10;1.92;;;19.40;99.90;;;;;;5056907;28;20227;-80
2022/05/12 10:26:00;;;;;;;12.38;2.03;;;19.50;99.90;;;;;;5056551;28;20198;-81
2022/05/12 10:28:52;;;;;;;10.80;2.00;;;19.50;99.90;;;;;;5056560;28;20194;-81
2022/05/12 10:31:28;;;;;;;10.60;1.58;;;19.50;99.90;;;;;;5056569;28;20194;-80
2022/05/12 10:34:23;;;;;;;11.90;1.73;;;19.50;99.90;;;;;;5056481;28;20189;-82
2022/05/12 10:37:03;;;;;;;12.18;1.75;;;19.50;99.90;;;;;;5056443;28;20247;-81
2022/05/12 10:39:42;;;;;;;8.38;1.60;;;19.40;99.90;;;;;;5056432;28;20185;-83
2022/05/12 10:42:33;;;;;;;7.75;1.80;;;19.50;99.90;;;;;;5056100;28;20189;-81
2022/05/12 10:45:19;;;;;;;9.40;1.67;;;19.50;99.90;;;;;;5056191;28;20190;-84
2022/05/12 10:48:09;;;;;;;11.25;1.73;;;19.50;99.90;;;;;;5056081;28;20200;-82
2022/05/12 10:50:47;;;;;;;11.45;1.90;;;19.50;99.90;;;;;;5059923;28;20695;-81
2022/05/12 10:53:32;;;;;;;9.02;1.73;;;19.50;99.90;;;;;;5076102;28;20561;-82
2022/05/12 10:56:11;;;;;;;12.38;2.40;;;19.60;99.90;;;;;;5075076;28;20227;-81
2022/05/12 10:58:47;;;;;;;12.70;1.63;;;19.50;99.90;;;;;;5075681;28;20595;-80
2022/05/12 11:01:22;;;;;;;10.93;1.85;;;19.50;99.90;;;;;;5072195;28;20192;-81
2022/05/12 11:04:00;;;;;;;12.63;1.83;;;19.50;99.90;;;;;;5057289;28;20196;-81
2022/05/12 11:06:36;;;;;;;11.68;2.05;;;19.50;99.90;;;;;;5063200;28;20606;-82
2022/05/12 11:09:12;;;;;;;13.98;2.17;;;19.50;99.90;;;;;;5055005;28;20240;-81
2022/05/12 11:11:45;;;;;;;16.17;2.13;;;19.50;99.90;;;;;;5054924;28;20200;-81
2022/05/12 11:14:20;;;;;;;16.80;1.92;;;19.50;99.90;;;;;;5061010;28;20272;-80
2022/05/12 11:17:02;;;;;;;13.02;2.00;;;19.50;99.90;;;;;;5073410;28;20220;-81
2022/05/12 11:19:32;;;;;;;12.43;1.80;;;19.50;99.90;;;;;;5064670;28;20558;-80
2022/05/12 11:22:14;;;;;;;13.07;1.50;;;19.50;99.90;;;;;;5060365;28;20239;-81
2022/05/12 11:24:52;;;;;;;12.52;2.47;;;19.50;99.90;;;;;;5056304;28;20190;-81
2022/05/12 11:27:46;;;;;;;10.57;1.88;;;19.50;99.90;;;;;;5059692;28;20193;-80
2022/05/12 11:30:33;;;;;;;10.45;1.85;;;19.40;99.90;;;;;;5082943;28;20232;-81
2022/05/12 11:33:16;;;;;;;14.15;1.73;;;19.40;99.90;;;;;;5055387;28;20248;-81
2022/05/12 11:35:48;;;;;;;11.85;1.98;;;19.40;99.90;;;;;;5073973;28;20280;-82
2022/05/12 11:38:47;;;;;;;12.65;1.73;;;19.40;99.90;;;;;;5073988;28;20242;-82
2022/05/12 11:41:44;;;;;;;13.32;2.28;;;19.40;99.90;;;;;;5058281;28;20201;-80
2022/05/12 11:44:34;;;;;;;9.60;1.80;;;19.40;99.90;;;;;;5053202;28;20720;-80
2022/05/12 11:47:33;;;;;;;17.92;2.28;;;19.40;99.90;;;;;;5063613;28;20189;-80
2022/05/12 11:50:18;;;;;;;11.18;1.75;;;19.40;99.90;;;;;;5071793;28;20254;-81
2022/05/12 11:53:02;;;;;;;9.32;1.83;;;19.40;99.90;;;;;;5068768;28;20311;-81
2022/05/12 11:55:35;;;;;;;9.05;1.65;;;19.40;99.90;;;;;;5072575;28;20326;-81
2022/05/12 11:58:11;;;;;;;9.15;1.65;;;19.40;99.90;;;;;;5071634;28;20193;-81
2022/05/12 12:01:06;;;;;;;7.22;1.63;;;19.40;99.90;;;;;;5069876;28;20238;-81
2022/05/12 12:04:01;;;;;;;13.23;1.95;;;19.30;99.90;;;;;;5052455;28;20616;-81
2022/05/12 12:06:47;;;;;;;6.85;1.38;;;19.30;99.90;;;;;;5067745;28;20250;-81
2022/05/12 12:09:53;;;;;;;11.02;1.95;;;19.30;99.90;;;;;;5072250;28;20235;-81
2022/05/12 12:12:55;;;;;;;13.18;1.65;;;19.30;99.90;;;;;;5064543;28;20189;-82
2022/05/12 12:15:59;;;;;;;12.90;1.73;;;19.30;99.90;;;;;;5069383;28;20253;-81
2022/05/12 12:18:50;;;;;;;12.80;1.90;;;19.30;99.90;;;;;;5063974;28;20192;-82
2022/05/12 12:21:43;;;;;;;11.95;1.95;;;19.30;99.90;;;;;;5072176;28;20628;-82
2022/05/12 12:24:53;;;;;;;11.80;2.13;;;19.30;99.90;;;;;;5073405;28;20192;-82
2022/05/12 12:27:52;;;;;;;12.27;1.95;;;19.20;99.90;;;;;;5067290;28;20203;-82
2022/05/12 12:30:38;;;;;;;7.90;1.60;;;19.30;99.90;;;;;;5065854;28;20695;-82
2022/05/12 12:33:20;;;;;;;8.68;1.77;;;19.20;99.90;;;;;;5067953;28;20736;-82
2022/05/12 12:36:00;;;;;;;9.07;1.70;;;19.20;99.90;;;;;;5068570;28;20208;-82
2022/05/12 12:39:16;;;;;;;8.73;1.85;;;19.20;99.90;;;;;;5060929;28;20204;-81
2022/05/12 12:41:48;;;;;;;8.48;2.03;;;19.20;99.90;;;;;;4986241;28;20204;-82
2022/05/12 12:44:25;;;;;;;13.60;2.00;;;19.10;99.90;;;;;;5067298;28;20193;-82
2022/05/12 12:47:11;;;;;;;9.88;2.17;;;19.20;99.90;;;;;;5072283;28;20250;-82
2022/05/12 12:50:07;;;;;;;9.48;2.10;;;19.20;99.90;;;;;;5073446;28;20208;-81
2022/05/12 12:52:43;;;;;;;9.50;2.00;;;19.10;99.90;;;;;;5068985;28;20807;-81
2022/05/12 12:58:13;;;;;;;9.15;2.00;;;19.10;99.90;;;;;;5069539;28;20330;-81
2022/05/12 13:00:44;;;;;;;9.13;1.88;;;19.10;99.90;;;;;;5069009;28;20242;-81
2022/05/12 13:03:23;;;;;;;9.73;2.20;;;19.10;99.90;;;;;;5068545;28;20193;-81
2022/05/12 13:06:07;;;;;;;8.05;2.28;;;19.10;99.90;;;;;;5065761;28;20197;-81
2022/05/12 13:08:38;;;;;;;11.45;2.30;;;19.10;99.90;;;;;;5065122;28;20232;-81
2022/05/12 13:11:10;;;;;;;11.55;2.00;;;19.10;99.90;;;;;;5068650;28;20205;-81
2022/05/12 13:13:51;;;;;;;6.88;2.40;;;19.10;99.90;;;;;;5068279;28;20189;-81
2022/05/12 13:16:26;;;;;;;13.00;2.25;;;19.10;99.90;;;;;;5068712;28;20309;-81
2022/05/12 13:18:59;;;;;;;11.18;2.17;;;19.10;99.90;;;;;;5069319;28;20655;-81
2022/05/12 13:21:38;;;;;;;15.68;2.42;;;19.10;99.90;;;;;;5069436;28;20250;-82
2022/05/12 13:24:13;;;;;;;15.55;2.58;;;19.10;99.90;;;;;;5068702;28;20197;-82
2022/05/12 13:26:47;;;;;;;9.55;2.08;;;19.10;99.90;;;;;;5066650;28;20189;-82
2022/05/12 13:29:26;;;;;;;11.60;2.20;;;19.10;99.90;;;;;;5069391;28;20189;-82
2022/05/12 13:32:00;;;;;;;12.88;2.72;;;19.00;99.90;;;;;;5069082;28;20200;-83
2022/05/12 13:34:31;;;;;;;11.48;2.10;;;19.00;99.90;;;;;;5068972;28;20196;-82
2022/05/12 13:37:20;;;;;;;11.45;2.03;;;19.00;99.90;;;;;;5067988;28;20201;-82
2022/05/12 13:39:52;;;;;;;9.90;2.25;;;19.00;99.90;;;;;;5066069;28;20197;-82